Time;durP1;ratioP1;P1;durP2;ratioP2;P2;SDS_P1;SDS_P2;PMS_P1;PMS_P2;Temp;Humidity;BMP_temperature;BMP_pressure;BME280_temperature;BME280_humidity;BME280_pressure;Samples;Min_cycle;Max_cycle;Signal;HPM_P1;HPM_P2
2023/06/26 00:00:53;;;;;;;11.93;10.53;;;21.50;71.80;;;;;;4974091;28;20045;-69
2023/06/26 00:03:19;;;;;;;14.67;10.80;;;21.50;71.70;;;;;;4984323;28;20046;-69
2023/06/26 00:05:44;;;;;;;12.87;10.43;;;21.50;71.90;;;;;;4985863;28;20062;-69
2023/06/26 00:08:10;;;;;;;11.70;10.43;;;21.50;71.90;;;;;;4971004;28;20062;-70
2023/06/26 00:10:36;;;;;;;11.87;9.83;;;21.50;72.30;;;;;;4986621;28;20117;-70
2023/06/26 00:13:02;;;;;;;11.00;9.87;;;21.50;72.10;;;;;;4970008;28;20041;-70
2023/06/26 00:15:31;;;;;;;11.60;10.50;;;21.50;72.30;;;;;;4972115;28;20042;-70
2023/06/26 00:17:58;;;;;;;11.63;10.43;;;21.50;72.30;;;;;;4967923;28;20049;-70
2023/06/26 00:20:24;;;;;;;12.40;10.10;;;21.50;72.30;;;;;;4974931;28;20282;-70
2023/06/26 00:22:50;;;;;;;13.03;11.20;;;21.50;72.30;;;;;;4967442;28;20093;-70
2023/06/26 00:25:16;;;;;;;11.80;10.60;;;21.50;72.00;;;;;;4965324;28;20050;-70
2023/06/26 00:27:42;;;;;;;11.07;9.63;;;21.50;72.10;;;;;;4970986;28;20038;-70
2023/06/26 00:30:08;;;;;;;11.60;10.40;;;21.50;72.10;;;;;;4995197;28;20394;-70
2023/06/26 00:32:34;;;;;;;12.67;10.97;;;21.60;72.10;;;;;;4991679;28;20049;-70
2023/06/26 00:35:00;;;;;;;11.40;10.23;;;21.60;72.20;;;;;;4981784;28;20285;-70
2023/06/26 00:37:26;;;;;;;13.13;10.90;;;21.60;72.20;;;;;;4979459;28;20042;-70
2023/06/26 00:39:51;;;;;;;11.83;10.53;;;21.60;72.00;;;;;;4981110;28;20162;-70
2023/06/26 00:42:17;;;;;;;12.93;10.60;;;21.70;71.80;;;;;;4972569;28;20035;-70
2023/06/26 00:44:43;;;;;;;11.83;10.63;;;21.70;72.00;;;;;;4986552;28;20023;-70
2023/06/26 00:47:13;;;;;;;12.20;11.00;;;21.70;71.80;;;;;;4970788;28;20113;-70
2023/06/26 00:49:39;;;;;;;11.83;10.63;;;21.70;72.00;;;;;;4971428;28;20046;-70
2023/06/26 00:52:05;;;;;;;12.63;11.20;;;21.70;71.70;;;;;;4970376;28;20061;-70
2023/06/26 00:54:31;;;;;;;13.07;11.37;;;21.70;71.70;;;;;;4986062;28;20108;-70
2023/06/26 00:56:57;;;;;;;11.73;10.60;;;21.70;71.60;;;;;;4967017;28;20094;-70
2023/06/26 00:59:23;;;;;;;12.50;11.20;;;21.80;72.00;;;;;;4976086;28;20057;-70
2023/06/26 01:01:49;;;;;;;12.43;11.13;;;21.80;71.80;;;;;;4970274;28;20034;-70
2023/06/26 01:04:18;;;;;;;12.67;11.20;;;21.80;71.70;;;;;;4965326;28;20118;-70
2023/06/26 01:06:48;;;;;;;13.70;10.73;;;21.80;71.60;;;;;;4972340;28;20142;-70
2023/06/26 01:09:17;;;;;;;12.80;10.93;;;21.80;71.70;;;;;;4968174;28;20049;-70
2023/06/26 01:11:43;;;;;;;12.57;11.10;;;21.80;71.60;;;;;;4968645;28;20300;-70
2023/06/26 01:14:09;;;;;;;12.83;10.83;;;21.80;71.70;;;;;;4979599;28;20492;-70
2023/06/26 01:16:35;;;;;;;12.47;11.17;;;21.80;71.80;;;;;;4969318;28;20051;-70
2023/06/26 01:19:01;;;;;;;12.67;11.23;;;21.80;72.10;;;;;;4985550;28;20043;-70
2023/06/26 01:21:32;;;;;;;12.03;10.83;;;21.80;71.90;;;;;;4985585;28;20354;-70
2023/06/26 01:24:20;;;;;;;11.37;10.27;;;21.80;71.80;;;;;;4968066;28;20078;-70
2023/06/26 01:26:51;;;;;;;14.13;11.67;;;21.70;71.90;;;;;;4993566;28;20125;-70
2023/06/26 01:29:18;;;;;;;13.07;11.27;;;21.70;72.00;;;;;;4977375;28;20050;-70
2023/06/26 01:31:47;;;;;;;14.53;12.27;;;21.70;72.20;;;;;;4978012;28;20051;-70
2023/06/26 01:34:15;;;;;;;13.70;12.30;;;21.70;72.20;;;;;;4993150;28;20035;-70
2023/06/26 01:36:40;;;;;;;15.43;12.77;;;21.60;72.40;;;;;;4997722;28;20284;-70
2023/06/26 01:39:08;;;;;;;14.20;12.80;;;21.60;73.00;;;;;;4976954;28;20046;-70
2023/06/26 01:41:34;;;;;;;14.87;12.33;;;21.50;72.90;;;;;;4981193;28;20042;-70
2023/06/26 01:44:03;;;;;;;13.83;12.23;;;21.40;73.20;;;;;;4974690;28;20304;-70
2023/06/26 01:46:38;;;;;;;13.27;11.87;;;21.40;73.30;;;;;;5001509;28;20034;-70
2023/06/26 01:49:10;;;;;;;13.32;11.93;;;21.40;73.40;;;;;;4973655;28;20293;-70
2023/06/26 01:51:41;;;;;;;14.70;12.00;;;21.30;74.00;;;;;;4985593;28;20054;-70
2023/06/26 01:54:18;;;;;;;14.17;12.23;;;21.30;74.20;;;;;;4973357;28;20071;-70
2023/06/26 01:56:48;;;;;;;13.73;12.43;;;21.20;74.50;;;;;;4972221;28;20097;-70
2023/06/26 01:59:14;;;;;;;13.67;12.27;;;21.20;74.40;;;;;;4973571;28;20046;-70
2023/06/26 02:01:40;;;;;;;14.90;13.40;;;21.20;75.00;;;;;;4973117;28;20093;-70
2023/06/26 02:04:06;;;;;;;14.33;12.87;;;21.10;74.90;;;;;;4960559;28;20046;-70
2023/06/26 02:06:31;;;;;;;15.00;13.47;;;21.10;75.30;;;;;;4971192;28;20034;-70
2023/06/26 02:08:57;;;;;;;14.67;13.00;;;21.10;75.50;;;;;;4968676;28;20098;-70
2023/06/26 02:11:23;;;;;;;13.97;12.57;;;21.10;75.80;;;;;;4985315;28;20054;-70
2023/06/26 02:13:49;;;;;;;14.33;12.83;;;21.10;75.90;;;;;;4970286;28;20112;-70
2023/06/26 02:16:14;;;;;;;13.23;11.23;;;21.10;76.80;;;;;;4972940;28;20046;-70
2023/06/26 02:18:41;;;;;;;11.23;10.13;;;21.10;76.90;;;;;;4973492;28;20123;-70
2023/06/26 02:21:07;;;;;;;11.67;10.47;;;21.20;76.70;;;;;;4969505;28;20061;-70
2023/06/26 02:23:33;;;;;;;10.07;8.93;;;21.20;76.10;;;;;;4969522;28;20035;-70
2023/06/26 02:25:59;;;;;;;9.67;8.67;;;21.30;75.40;;;;;;4968904;28;20802;-69
2023/06/26 02:28:24;;;;;;;10.07;7.77;;;21.40;74.80;;;;;;4969899;28;20055;-69
2023/06/26 02:30:50;;;;;;;10.03;7.73;;;21.40;74.40;;;;;;4982369;28;20054;-69
2023/06/26 02:33:16;;;;;;;9.50;7.40;;;21.40;73.90;;;;;;4973006;28;20050;-69
2023/06/26 02:35:41;;;;;;;10.23;7.50;;;21.40;73.50;;;;;;4969365;28;20503;-69
2023/06/26 02:38:08;;;;;;;8.17;6.37;;;21.40;73.20;;;;;;4980655;28;20049;-69
2023/06/26 02:40:33;;;;;;;13.77;7.73;;;21.40;73.10;;;;;;4969549;28;20667;-69
2023/06/26 02:42:59;;;;;;;10.30;6.80;;;21.40;73.30;;;;;;4971420;28;20039;-69
2023/06/26 02:45:25;;;;;;;9.77;7.13;;;21.30;73.30;;;;;;4988272;28;20473;-69
2023/06/26 02:47:51;;;;;;;11.10;7.60;;;21.20;73.40;;;;;;4976422;28;20512;-69
2023/06/26 02:50:16;;;;;;;10.83;7.33;;;21.20;73.90;;;;;;4969332;28;20061;-69
2023/06/26 02:52:42;;;;;;;10.13;7.50;;;21.10;74.10;;;;;;4972504;28;20085;-69
2023/06/26 02:55:08;;;;;;;12.60;7.63;;;21.00;74.80;;;;;;4970465;28;20438;-69
2023/06/26 02:57:33;;;;;;;9.57;7.70;;;20.90;75.90;;;;;;4972773;28;20034;-69
2023/06/26 02:59:59;;;;;;;11.90;7.80;;;20.80;76.20;;;;;;4985277;28;20082;-69
2023/06/26 03:02:25;;;;;;;10.40;8.00;;;20.70;76.90;;;;;;4979400;28;20614;-69
2023/06/26 03:04:52;;;;;;;11.07;8.53;;;20.60;77.30;;;;;;4984122;28;20045;-70
2023/06/26 03:07:18;;;;;;;10.97;8.27;;;20.60;77.40;;;;;;4995197;28;20043;-70
2023/06/26 03:09:44;;;;;;;13.70;9.13;;;20.50;78.10;;;;;;4970030;28;20865;-70
2023/06/26 03:12:09;;;;;;;11.43;8.80;;;20.40;78.50;;;;;;4985752;28;20046;-70
2023/06/26 03:14:35;;;;;;;15.73;9.83;;;20.40;78.80;;;;;;4978307;28;20049;-70
2023/06/26 03:17:03;;;;;;;14.97;8.37;;;20.30;79.40;;;;;;4955647;28;20050;-70
2023/06/26 03:19:29;;;;;;;12.33;8.43;;;20.30;79.80;;;;;;4973102;28;20075;-70
2023/06/26 03:21:55;;;;;;;15.67;9.03;;;20.30;80.50;;;;;;4976697;28;20428;-70
2023/06/26 03:24:21;;;;;;;15.57;9.53;;;20.30;80.70;;;;;;4970761;28;20389;-70
2023/06/26 03:26:46;;;;;;;15.03;9.80;;;20.30;81.60;;;;;;4970704;28;20046;-70
2023/06/26 03:29:12;;;;;;;14.07;9.20;;;20.30;81.90;;;;;;4975293;28;20046;-69
2023/06/26 03:31:38;;;;;;;15.57;9.33;;;20.30;81.40;;;;;;4981892;28;20467;-69
2023/06/26 03:34:03;;;;;;;16.50;9.73;;;20.30;82.10;;;;;;4990078;28;20065;-70
2023/06/26 03:36:29;;;;;;;16.73;9.40;;;20.30;83.00;;;;;;4969581;28;20050;-69
2023/06/26 03:38:56;;;;;;;14.90;9.97;;;20.30;82.90;;;;;;4970403;28;20122;-70
2023/06/26 03:41:23;;;;;;;17.57;10.10;;;20.30;82.60;;;;;;4971756;28;20050;-69
2023/06/26 03:43:49;;;;;;;15.50;9.93;;;20.30;82.80;;;;;;4973226;28;20727;-69
2023/06/26 03:46:14;;;;;;;23.57;11.10;;;20.20;83.10;;;;;;4956217;28;20315;-69
2023/06/26 03:48:40;;;;;;;18.50;11.40;;;20.20;84.30;;;;;;4985782;28;20047;-69
2023/06/26 03:51:07;;;;;;;23.03;12.80;;;20.20;85.60;;;;;;4969999;28;20521;-69
2023/06/26 03:53:33;;;;;;;25.83;12.93;;;20.10;86.20;;;;;;4974367;28;20463;-69
2023/06/26 03:55:59;;;;;;;23.77;13.67;;;20.00;87.00;;;;;;4979544;28;20293;-69
2023/06/26 03:58:25;;;;;;;24.57;13.30;;;19.90;88.30;;;;;;4978963;28;20817;-69
2023/06/26 04:00:51;;;;;;;26.80;13.27;;;19.80;89.10;;;;;;4978833;28;20043;-69
2023/06/26 04:03:17;;;;;;;21.83;13.90;;;19.70;90.10;;;;;;4969014;28;20038;-69
2023/06/26 04:05:42;;;;;;;26.23;15.03;;;19.60;90.60;;;;;;4966915;28;20296;-69
2023/06/26 04:08:08;;;;;;;23.23;14.47;;;19.60;91.00;;;;;;4974986;28;20070;-69
2023/06/26 04:10:36;;;;;;;27.23;15.47;;;19.50;90.20;;;;;;4998059;28;20478;-69
2023/06/26 04:13:01;;;;;;;26.83;14.50;;;19.50;91.10;;;;;;4980484;28;20042;-69
2023/06/26 04:15:27;;;;;;;22.27;12.37;;;19.40;91.60;;;;;;4973420;28;20344;-69
2023/06/26 04:17:53;;;;;;;20.50;12.90;;;19.40;90.80;;;;;;4970547;28;20093;-69
2023/06/26 04:20:19;;;;;;;18.07;12.43;;;19.40;90.70;;;;;;4970953;28;20433;-69
2023/06/26 04:22:44;;;;;;;25.23;12.47;;;19.40;89.90;;;;;;4972547;28;20411;-69
2023/06/26 04:25:11;;;;;;;17.20;10.60;;;19.40;90.40;;;;;;4969794;28;20038;-69
2023/06/26 04:27:37;;;;;;;16.70;10.33;;;19.40;90.20;;;;;;4969889;28;20438;-69
2023/06/26 04:30:04;;;;;;;16.33;10.43;;;19.40;90.10;;;;;;4969972;28;20290;-69
2023/06/26 04:32:30;;;;;;;14.50;9.00;;;19.40;90.00;;;;;;4947320;28;20364;-69
2023/06/26 04:34:56;;;;;;;17.67;8.33;;;19.40;90.20;;;;;;4972923;28;20342;-69
2023/06/26 04:37:22;;;;;;;15.27;7.83;;;19.30;90.40;;;;;;4956045;28;20101;-69
2023/06/26 04:39:48;;;;;;;13.33;7.93;;;19.30;90.00;;;;;;4971294;28;20267;-69
2023/06/26 04:42:13;;;;;;;15.67;7.73;;;19.30;90.40;;;;;;4969576;28;20397;-69
2023/06/26 04:44:40;;;;;;;12.70;6.60;;;19.30;90.40;;;;;;4975256;28;20128;-69
2023/06/26 04:47:07;;;;;;;11.83;5.80;;;19.30;90.10;;;;;;4972679;28;20125;-69
2023/06/26 04:49:34;;;;;;;11.80;5.73;;;19.40;89.10;;;;;;4975890;28;20314;-70
2023/06/26 04:52:00;;;;;;;11.27;4.90;;;19.30;88.40;;;;;;4967767;28;20317;-70
2023/06/26 04:54:27;;;;;;;12.13;4.83;;;19.30;87.50;;;;;;4971388;28;20298;-70
2023/06/26 04:56:53;;;;;;;11.97;5.40;;;19.20;86.80;;;;;;4983150;28;20260;-70
2023/06/26 04:59:19;;;;;;;12.00;4.50;;;19.10;86.90;;;;;;4991102;28;20794;-69
2023/06/26 05:01:47;;;;;;;14.27;4.93;;;19.10;86.70;;;;;;4971570;28;20174;-69
2023/06/26 05:04:15;;;;;;;10.90;4.30;;;19.00;86.80;;;;;;4987740;28;20201;-69
2023/06/26 05:06:40;;;;;;;13.73;4.63;;;19.00;87.30;;;;;;4985510;28;20301;-69
2023/06/26 05:09:06;;;;;;;12.13;4.37;;;19.00;86.80;;;;;;4953648;28;20786;-69
2023/06/26 05:11:32;;;;;;;18.07;4.20;;;19.10;86.50;;;;;;4971593;28;20043;-69
2023/06/26 05:13:58;;;;;;;12.30;4.63;;;19.40;86.00;;;;;;4972551;28;20494;-69
2023/06/26 05:16:23;;;;;;;12.27;4.40;;;19.90;83.60;;;;;;4968348;28;20117;-69
2023/06/26 05:18:49;;;;;;;12.70;3.70;;;20.40;80.70;;;;;;4948867;28;20043;-69
2023/06/26 05:21:16;;;;;;;12.27;3.33;;;20.70;78.20;;;;;;4987034;28;20041;-69
2023/06/26 05:23:44;;;;;;;8.63;2.77;;;21.00;77.00;;;;;;4975436;28;20042;-69
2023/06/26 05:26:10;;;;;;;9.67;3.37;;;21.30;75.60;;;;;;4954902;28;20645;-69
2023/06/26 05:28:37;;;;;;;10.60;3.07;;;21.70;74.00;;;;;;4973610;28;20288;-69
2023/06/26 05:31:04;;;;;;;10.47;2.80;;;21.80;72.40;;;;;;4970905;28;20286;-69
2023/06/26 05:33:31;;;;;;;8.87;2.77;;;21.50;72.40;;;;;;4974327;28;20294;-69
2023/06/26 05:35:59;;;;;;;10.47;3.67;;;21.10;73.70;;;;;;4969901;28;20294;-69
2023/06/26 05:38:25;;;;;;;10.97;3.50;;;21.00;74.60;;;;;;4967075;28;20298;-69
2023/06/26 05:40:51;;;;;;;9.63;3.07;;;21.30;73.80;;;;;;4960878;28;20301;-69
2023/06/26 05:43:20;;;;;;;10.07;3.00;;;21.70;72.60;;;;;;4976678;28;20805;-69
2023/06/26 05:45:47;;;;;;;7.90;2.90;;;22.00;70.60;;;;;;4963282;28;20121;-69
2023/06/26 05:48:13;;;;;;;11.50;2.80;;;22.10;70.80;;;;;;4968083;28;20301;-69
2023/06/26 05:50:41;;;;;;;8.40;2.87;;;22.10;69.10;;;;;;4968542;28;20823;-69
2023/06/26 05:53:07;;;;;;;9.63;2.23;;;22.20;67.90;;;;;;4964868;28;20109;-69
2023/06/26 05:55:34;;;;;;;7.53;1.70;;;22.40;68.00;;;;;;4969672;28;20658;-69
2023/06/26 05:58:01;;;;;;;8.53;2.00;;;22.40;66.80;;;;;;4967188;28;20038;-69
2023/06/26 06:00:28;;;;;;;9.37;2.27;;;22.10;68.00;;;;;;4990612;28;20286;-69
2023/06/26 06:02:54;;;;;;;8.50;1.90;;;22.10;67.80;;;;;;4956305;28;20050;-69
2023/06/26 06:05:23;;;;;;;5.33;2.13;;;22.20;67.00;;;;;;4957955;28;20045;-69
2023/06/26 06:07:49;;;;;;;9.43;2.23;;;22.50;65.10;;;;;;4957033;28;20085;-69
2023/06/26 06:10:15;;;;;;;10.97;2.33;;;22.30;65.90;;;;;;4979453;28;20513;-69
2023/06/26 06:12:40;;;;;;;6.40;1.90;;;22.40;66.90;;;;;;4988075;28;20034;-69
2023/06/26 06:15:07;;;;;;;8.27;2.13;;;23.00;65.40;;;;;;4985536;28;20086;-69
2023/06/26 06:17:32;;;;;;;7.97;2.30;;;23.50;63.90;;;;;;4972748;28;20034;-70
2023/06/26 06:19:58;;;;;;;7.07;1.90;;;23.90;62.40;;;;;;4991468;28;20391;-70
2023/06/26 06:22:24;;;;;;;5.93;1.93;;;24.40;60.80;;;;;;4975818;28;20049;-69
2023/06/26 06:24:50;;;;;;;8.03;2.40;;;24.40;58.90;;;;;;4977172;28;20039;-69
2023/06/26 06:27:16;;;;;;;6.47;1.80;;;24.40;58.20;;;;;;4977606;28;20049;-69
2023/06/26 06:29:42;;;;;;;8.30;2.03;;;24.00;58.70;;;;;;4978957;28;20534;-69
2023/06/26 06:32:08;;;;;;;7.83;2.10;;;23.90;59.00;;;;;;4983088;28;20125;-69
2023/06/26 06:34:34;;;;;;;5.73;1.67;;;24.00;59.00;;;;;;4973623;28;20113;-69
2023/06/26 06:37:00;;;;;;;5.63;1.83;;;23.90;59.00;;;;;;5002723;28;20577;-69
2023/06/26 06:39:26;;;;;;;7.10;1.57;;;23.70;59.20;;;;;;4973582;28;20050;-69
2023/06/26 06:41:52;;;;;;;4.57;1.27;;;23.50;58.70;;;;;;4991042;28;20047;-69
2023/06/26 06:44:18;;;;;;;3.97;1.37;;;23.40;57.90;;;;;;4991822;28;20102;-69
2023/06/26 06:46:44;;;;;;;4.03;1.27;;;23.30;58.50;;;;;;4976063;28;20483;-69
2023/06/26 06:49:09;;;;;;;6.37;1.40;;;23.10;58.30;;;;;;4988747;28;20042;-69
2023/06/26 06:51:35;;;;;;;3.47;1.10;;;23.10;58.90;;;;;;4974068;28;20423;-69
2023/06/26 06:54:01;;;;;;;4.60;1.30;;;23.00;59.80;;;;;;4981120;28;20141;-69
2023/06/26 06:56:27;;;;;;;6.13;1.30;;;22.90;60.50;;;;;;4984015;28;20042;-70
2023/06/26 06:58:53;;;;;;;3.33;1.30;;;22.80;61.40;;;;;;4983226;28;20047;-70
2023/06/26 07:01:19;;;;;;;5.93;1.20;;;22.70;61.50;;;;;;4969031;28;20099;-70
2023/06/26 07:03:44;;;;;;;3.33;1.40;;;22.50;61.90;;;;;;4958485;28;20034;-69
2023/06/26 07:06:10;;;;;;;4.20;1.60;;;22.30;63.10;;;;;;4982839;28;20505;-70
2023/06/26 07:08:36;;;;;;;5.90;1.50;;;22.20;64.00;;;;;;4975210;28;20134;-70
2023/06/26 07:11:02;;;;;;;5.53;1.63;;;22.20;64.60;;;;;;4958267;28;20046;-70
2023/06/26 07:13:28;;;;;;;5.23;1.60;;;22.00;64.40;;;;;;4991702;28;20099;-70
2023/06/26 07:15:54;;;;;;;3.97;1.37;;;21.80;66.10;;;;;;4977957;28;20141;-70
2023/06/26 07:18:20;;;;;;;7.50;1.63;;;21.70;65.60;;;;;;4996181;28;20043;-70
2023/06/26 07:20:45;;;;;;;5.70;1.53;;;21.50;66.10;;;;;;4960551;28;20402;-70
2023/06/26 07:23:11;;;;;;;4.20;1.80;;;21.40;67.10;;;;;;4979051;28;20038;-70
2023/06/26 07:25:37;;;;;;;4.10;1.93;;;21.40;67.70;;;;;;4976899;28;20109;-70
2023/06/26 07:28:03;;;;;;;4.53;1.60;;;21.50;67.10;;;;;;4974129;28;20051;-70
2023/06/26 07:30:28;;;;;;;5.67;1.93;;;21.40;67.30;;;;;;4981226;28;20046;-70
2023/06/26 07:32:54;;;;;;;8.80;2.10;;;21.40;68.30;;;;;;4990882;28;20082;-71
2023/06/26 07:35:20;;;;;;;7.07;1.83;;;21.50;67.90;;;;;;4983011;28;20045;-70
2023/06/26 07:37:46;;;;;;;6.20;1.97;;;21.60;67.80;;;;;;4977444;28;20043;-69
2023/06/26 07:40:11;;;;;;;4.97;1.67;;;21.50;67.10;;;;;;4961169;28;20479;-71
2023/06/26 07:42:37;;;;;;;6.50;1.70;;;21.40;67.60;;;;;;4995988;28;20074;-70
2023/06/26 07:45:10;;;;;;;5.77;1.83;;;21.60;66.70;;;;;;4975275;28;20542;-70
2023/06/26 07:47:37;;;;;;;5.93;2.03;;;21.60;66.30;;;;;;4973051;28;20046;-70
2023/06/26 07:50:03;;;;;;;4.87;1.60;;;21.70;66.70;;;;;;4983719;28;20505;-71
2023/06/26 07:52:30;;;;;;;7.10;1.90;;;21.80;66.70;;;;;;4975097;28;20468;-70
2023/06/26 07:54:56;;;;;;;7.67;1.83;;;21.90;67.00;;;;;;4977017;28;20043;-70
2023/06/26 07:57:22;;;;;;;7.23;2.30;;;22.20;66.40;;;;;;4975491;28;20093;-70
2023/06/26 07:59:47;;;;;;;7.20;2.37;;;22.20;65.80;;;;;;4985609;28;20589;-71
2023/06/26 08:02:13;;;;;;;6.83;2.10;;;22.20;64.70;;;;;;4977621;28;20047;-70
2023/06/26 08:04:39;;;;;;;6.00;1.50;;;22.10;64.50;;;;;;4986584;28;20070;-70
2023/06/26 08:07:05;;;;;;;5.73;2.17;;;21.70;65.50;;;;;;4984445;28;20050;-70
2023/06/26 08:09:31;;;;;;;3.93;1.57;;;21.60;65.50;;;;;;4985848;28;20482;-71
2023/06/26 08:11:57;;;;;;;5.57;1.97;;;21.60;66.60;;;;;;4997608;28;20038;-69
2023/06/26 08:14:23;;;;;;;8.73;1.90;;;21.50;66.50;;;;;;5003051;28;20422;-70
2023/06/26 08:16:50;;;;;;;6.27;1.80;;;21.60;67.00;;;;;;4973078;28;20043;-70
2023/06/26 08:19:16;;;;;;;6.97;1.80;;;21.60;66.10;;;;;;4953134;28;20134;-70
2023/06/26 08:21:43;;;;;;;7.13;2.37;;;21.60;64.90;;;;;;4975318;28;20057;-70
2023/06/26 08:24:10;;;;;;;7.30;2.20;;;21.60;66.00;;;;;;4958811;28;20035;-69
2023/06/26 08:26:37;;;;;;;6.87;2.30;;;21.60;65.00;;;;;;4974237;28;20068;-69
2023/06/26 08:29:07;;;;;;;7.23;2.97;;;21.50;66.20;;;;;;4971113;28;20125;-70
2023/06/26 08:31:34;;;;;;;8.77;2.87;;;21.70;66.00;;;;;;4983251;28;20042;-70
2023/06/26 08:34:01;;;;;;;8.67;2.93;;;21.80;65.50;;;;;;4971827;28;20079;-71
2023/06/26 08:36:26;;;;;;;6.50;2.67;;;21.90;65.30;;;;;;4972122;28;20077;-70
2023/06/26 08:38:52;;;;;;;7.63;3.00;;;22.00;65.00;;;;;;4969106;28;20100;-70
2023/06/26 08:41:18;;;;;;;7.87;3.10;;;22.10;65.30;;;;;;4959987;28;20036;-69
2023/06/26 08:43:43;;;;;;;9.27;3.43;;;22.00;65.80;;;;;;4960882;28;20041;-69
2023/06/26 08:46:09;;;;;;;8.97;3.20;;;21.80;65.90;;;;;;4967059;28;20038;-69
2023/06/26 08:48:38;;;;;;;6.67;3.00;;;21.80;66.20;;;;;;4959673;28;20468;-69
2023/06/26 08:51:13;;;;;;;10.57;3.70;;;22.10;66.20;;;;;;4974051;28;20089;-69
2023/06/26 08:53:41;;;;;;;8.40;3.95;;;22.20;65.10;;;;;;4974842;28;20051;-69
2023/06/26 08:56:08;;;;;;;10.47;3.20;;;22.00;64.90;;;;;;4968814;28;20055;-69
2023/06/26 08:58:36;;;;;;;6.30;3.03;;;22.10;65.00;;;;;;4960615;28;20046;-70
2023/06/26 09:01:04;;;;;;;5.50;3.30;;;22.10;64.50;;;;;;4973976;28;20117;-69
2023/06/26 09:03:30;;;;;;;8.03;2.93;;;22.20;64.90;;;;;;4959211;28;20549;-69
2023/06/26 09:05:56;;;;;;;6.63;2.77;;;22.50;64.00;;;;;;4962740;28;20035;-69
2023/06/26 09:08:22;;;;;;;6.23;3.10;;;22.50;62.90;;;;;;4961566;28;20475;-69
2023/06/26 09:10:47;;;;;;;6.63;2.80;;;22.50;63.00;;;;;;4974624;28;20113;-69
2023/06/26 09:13:13;;;;;;;6.17;3.23;;;22.60;62.80;;;;;;4975923;28;20073;-69
2023/06/26 09:15:43;;;;;;;5.57;2.83;;;22.70;63.40;;;;;;4982646;28;20097;-69
2023/06/26 09:18:08;;;;;;;6.33;3.23;;;22.60;61.90;;;;;;4975748;28;20081;-69
2023/06/26 09:20:34;;;;;;;6.13;3.23;;;22.40;62.10;;;;;;4972389;28;20070;-69
2023/06/26 09:23:01;;;;;;;7.40;3.33;;;22.30;63.60;;;;;;4961719;28;20046;-69
2023/06/26 09:25:28;;;;;;;6.10;3.30;;;22.60;64.00;;;;;;4974616;28;20039;-69
2023/06/26 09:27:55;;;;;;;6.40;3.07;;;22.70;62.80;;;;;;4975252;28;20038;-69
2023/06/26 09:30:20;;;;;;;8.30;3.33;;;22.60;62.80;;;;;;4990967;28;20077;-69
2023/06/26 09:32:47;;;;;;;7.20;3.43;;;22.50;63.90;;;;;;4961238;28;20081;-70
2023/06/26 09:35:13;;;;;;;6.90;3.47;;;22.50;63.40;;;;;;4959102;28;20038;-70
2023/06/26 09:37:39;;;;;;;6.07;2.83;;;22.60;63.80;;;;;;4962516;28;20545;-69
2023/06/26 09:40:05;;;;;;;8.33;3.10;;;22.50;62.60;;;;;;4979223;28;20110;-70
2023/06/26 09:42:31;;;;;;;6.00;3.07;;;22.50;63.20;;;;;;4967415;28;20039;-69
2023/06/26 09:44:57;;;;;;;9.80;3.47;;;22.40;63.50;;;;;;4965818;28;20054;-69
2023/06/26 09:47:24;;;;;;;5.33;2.83;;;22.30;63.80;;;;;;4984286;28;20084;-70
2023/06/26 09:49:51;;;;;;;8.07;2.60;;;22.20;63.40;;;;;;4977645;28;20049;-70
2023/06/26 09:52:19;;;;;;;10.03;2.80;;;22.20;64.10;;;;;;4987955;28;20086;-70
2023/06/26 09:54:45;;;;;;;8.57;2.50;;;22.20;63.50;;;;;;4984637;28;20129;-71
2023/06/26 09:57:20;;;;;;;9.80;2.30;;;22.40;62.90;;;;;;4989125;28;20522;-70
2023/06/26 09:59:46;;;;;;;;;;;22.60;61.60;;;;;;4964622;28;20078;-71
2023/06/26 10:02:12;;;;;;;6.47;2.37;;;22.80;61.60;;;;;;4966424;28;19922;-71
2023/06/26 10:04:38;;;;;;;7.27;2.20;;;23.00;60.00;;;;;;4983378;28;20041;-71
2023/06/26 10:07:11;;;;;;;9.20;2.23;;;22.80;60.40;;;;;;4971224;28;20562;-71
2023/06/26 10:09:41;;;;;;;6.67;2.33;;;22.50;61.60;;;;;;4957997;28;20035;-71
2023/06/26 10:12:16;;;;;;;9.33;2.50;;;22.40;61.40;;;;;;4987421;28;20084;-71
2023/06/26 10:14:42;;;;;;;;;;;22.10;61.00;;;;;;4956570;28;20101;-71
2023/06/26 10:17:10;;;;;;;9.97;1.70;;;22.10;62.30;;;;;;4982746;28;19918;-71
2023/06/26 10:19:43;;;;;;;5.87;1.50;;;22.50;61.90;;;;;;4952963;28;20047;-71
2023/06/26 10:22:11;;;;;;;7.83;1.70;;;22.80;61.10;;;;;;4987021;28;20526;-71
2023/06/26 10:24:39;;;;;;;7.23;1.53;;;22.80;59.60;;;;;;4967509;28;20082;-70
2023/06/26 10:27:19;;;;;;;9.20;1.70;;;22.80;60.40;;;;;;4982331;28;20085;-70
2023/06/26 10:29:58;;;;;;;7.20;1.60;;;22.70;60.10;;;;;;4970695;28;20039;-70
2023/06/26 10:32:26;;;;;;;6.87;1.67;;;22.50;59.20;;;;;;4964717;28;20043;-70
2023/06/26 10:34:53;;;;;;;6.33;1.67;;;22.50;60.20;;;;;;4962965;28;20398;-70
2023/06/26 10:37:18;;;;;;;4.13;1.23;;;22.70;59.70;;;;;;4955631;28;20046;-70
2023/06/26 10:39:52;;;;;;;6.80;1.70;;;22.90;59.00;;;;;;4964958;28;20179;-70
2023/06/26 10:42:19;;;;;;;5.57;1.23;;;22.90;58.20;;;;;;4963180;28;20035;-70
2023/06/26 10:44:46;;;;;;;9.77;1.70;;;22.70;58.80;;;;;;4971506;28;20498;-70
2023/06/26 10:47:29;;;;;;;6.90;1.47;;;22.30;59.50;;;;;;4966910;28;20090;-70
2023/06/26 10:49:54;;;;;;;6.47;1.33;;;22.30;60.50;;;;;;4973852;28;20050;-70
2023/06/26 10:52:20;;;;;;;5.67;1.50;;;22.50;60.00;;;;;;4965822;28;20514;-70
2023/06/26 10:54:46;;;;;;;6.47;1.53;;;22.70;59.50;;;;;;4976862;28;20042;-70
2023/06/26 10:57:24;;;;;;;6.07;1.23;;;22.80;58.50;;;;;;4969894;28;20050;-70
2023/06/26 11:00:13;;;;;;;6.20;1.10;;;22.60;55.80;;;;;;4970351;28;20070;-70
2023/06/26 11:02:52;;;;;;;4.93;1.10;;;22.70;56.80;;;;;;4985597;28;20049;-71
2023/06/26 11:05:29;;;;;;;5.53;1.40;;;23.00;56.80;;;;;;4971676;28;20108;-71
2023/06/26 11:08:08;;;;;;;6.30;1.30;;;23.30;54.60;;;;;;4957873;28;20046;-70
2023/06/26 11:10:59;;;;;;;5.37;1.10;;;23.30;53.50;;;;;;4981560;28;20515;-70
2023/06/26 11:13:26;;;;;;;4.73;0.97;;;23.00;53.60;;;;;;4978735;28;20537;-71
2023/06/26 11:15:51;;;;;;;4.10;0.90;;;22.50;55.20;;;;;;4975417;28;20045;-71
2023/06/26 11:18:17;;;;;;;5.57;1.00;;;22.40;55.20;;;;;;4993111;28;21497;-72
2023/06/26 11:20:43;;;;;;;5.57;1.10;;;22.40;56.60;;;;;;4961828;28;20398;-71
2023/06/26 11:23:10;;;;;;;9.13;1.90;;;22.50;57.30;;;;;;4973531;28;20043;-71
2023/06/26 11:25:37;;;;;;;5.13;1.20;;;22.80;57.70;;;;;;4973344;28;20043;-71
2023/06/26 11:28:09;;;;;;;8.43;1.47;;;22.70;56.50;;;;;;4994519;28;20054;-71
2023/06/26 11:30:35;;;;;;;6.97;1.60;;;22.70;56.50;;;;;;4977700;28;20101;-71
2023/06/26 11:33:05;;;;;;;9.13;1.40;;;22.80;57.50;;;;;;4976346;28;20079;-71
2023/06/26 11:35:31;;;;;;;6.20;1.30;;;22.60;57.00;;;;;;4981397;28;20446;-71
2023/06/26 11:38:00;;;;;;;6.53;1.30;;;22.30;56.60;;;;;;4975954;28;20141;-71
2023/06/26 11:40:31;;;;;;;7.03;1.43;;;22.40;57.40;;;;;;4975016;28;20038;-71
2023/06/26 11:43:01;;;;;;;9.07;1.33;;;22.50;57.60;;;;;;4983853;28;20054;-71
2023/06/26 11:45:33;;;;;;;4.47;1.40;;;22.30;57.70;;;;;;4959584;28;20038;-71
2023/06/26 11:48:00;;;;;;;7.17;1.80;;;22.30;58.20;;;;;;4962610;28;20050;-71
2023/06/26 11:50:27;;;;;;;10.30;1.87;;;22.30;58.40;;;;;;4978762;28;20114;-71
2023/06/26 11:52:54;;;;;;;5.80;1.43;;;22.40;57.50;;;;;;4960668;28;20042;-71
2023/06/26 11:55:20;;;;;;;8.53;1.70;;;22.40;57.80;;;;;;4974740;28;20046;-71
2023/06/26 11:57:56;;;;;;;8.60;1.70;;;22.50;57.60;;;;;;4975288;28;20117;-70
2023/06/26 12:00:23;;;;;;;9.53;2.10;;;22.50;57.20;;;;;;4974917;28;20462;-70
2023/06/26 12:02:50;;;;;;;7.87;1.67;;;22.50;58.00;;;;;;4979613;28;20122;-71
2023/06/26 12:05:16;;;;;;;10.17;2.00;;;22.50;57.90;;;;;;4976594;28;20463;-71
2023/06/26 12:07:45;;;;;;;8.63;1.60;;;22.50;58.70;;;;;;4978024;28;20060;-70
2023/06/26 12:10:12;;;;;;;5.93;1.80;;;22.80;57.70;;;;;;4977596;28;20042;-70
2023/06/26 12:12:39;;;;;;;5.33;1.67;;;22.90;56.80;;;;;;4980506;28;20042;-71
2023/06/26 12:15:07;;;;;;;7.03;1.63;;;23.10;57.00;;;;;;4977495;28;20333;-72
2023/06/26 12:17:32;;;;;;;7.87;1.90;;;23.20;56.10;;;;;;4966750;28;20112;-72
2023/06/26 12:19:58;;;;;;;4.83;1.20;;;23.30;56.60;;;;;;4965472;28;20455;-71
2023/06/26 12:22:24;;;;;;;6.40;0.97;;;23.50;56.10;;;;;;4956062;28;20488;-71
2023/06/26 12:24:50;;;;;;;6.30;1.30;;;23.50;55.60;;;;;;4967723;28;20085;-72
2023/06/26 12:27:18;;;;;;;7.37;1.83;;;23.70;55.00;;;;;;4985636;28;20121;-71
2023/06/26 12:29:55;;;;;;;7.27;1.60;;;23.10;54.90;;;;;;4968800;28;20130;-71
2023/06/26 12:32:25;;;;;;;6.73;1.40;;;22.80;56.50;;;;;;4973266;28;20039;-71
2023/06/26 12:34:52;;;;;;;7.07;1.47;;;22.70;57.00;;;;;;4975425;28;20077;-71
2023/06/26 12:37:18;;;;;;;8.43;1.70;;;22.80;56.70;;;;;;4952090;28;20066;-71
2023/06/26 12:39:52;;;;;;;7.03;1.90;;;22.80;57.20;;;;;;4991867;28;20038;-71